Time;durP1;ratioP1;P1;durP2;ratioP2;P2;SDS_P1;SDS_P2;PMS_P1;PMS_P2;Temp;Humidity;BMP_temperature;BMP_pressure;BME280_temperature;BME280_humidity;BME280_pressure;Samples;Min_cycle;Max_cycle;Signal;HPM_P1;HPM_P2
2022/12/27 00:01:48;;;;;;;9.50;2.05;;;3.90;99.90;;;;;;5127820;27;20122;-91
2022/12/27 00:04:13;;;;;;;5.63;1.45;;;3.90;99.90;;;;;;5134696;27;20116;-92
2022/12/27 00:06:39;;;;;;;9.75;1.50;;;3.90;99.90;;;;;;5131567;27;20047;-92
2022/12/27 00:09:05;;;;;;;6.00;1.55;;;3.90;99.90;;;;;;5120384;27;20537;-90
2022/12/27 00:11:31;;;;;;;6.15;1.40;;;3.90;99.90;;;;;;5137806;27;20139;-91
2022/12/27 00:14:02;;;;;;;10.20;1.35;;;3.90;99.90;;;;;;5119877;27;20103;-91
2022/12/27 00:16:28;;;;;;;4.93;1.25;;;3.80;99.90;;;;;;5120229;27;20060;-91
2022/12/27 00:18:53;;;;;;;6.47;1.13;;;3.90;99.90;;;;;;5114930;27;20047;-91
2022/12/27 00:21:20;;;;;;;3.63;1.20;;;3.80;99.90;;;;;;5118634;28;20042;-92
2022/12/27 00:23:49;;;;;;;4.22;0.98;;;3.80;99.90;;;;;;5099398;27;20049;-92
2022/12/27 00:26:17;;;;;;;4.35;1.10;;;3.90;99.90;;;;;;5112140;28;20088;-91
2022/12/27 00:28:43;;;;;;;8.73;1.38;;;3.90;99.90;;;;;;5096201;28;20050;-91
2022/12/27 00:31:09;;;;;;;7.50;1.48;;;3.90;99.90;;;;;;5096316;28;20511;-91
2022/12/27 00:33:36;;;;;;;4.35;1.33;;;4.00;99.90;;;;;;5105517;27;20176;-92
2022/12/27 00:36:05;;;;;;;5.15;1.48;;;4.00;99.90;;;;;;5116582;27;20114;-91
2022/12/27 00:38:32;;;;;;;12.90;2.67;;;4.00;99.90;;;;;;5111801;27;20039;-91
2022/12/27 00:40:58;;;;;;;9.48;1.77;;;4.00;99.90;;;;;;5116367;27;20476;-92
2022/12/27 00:43:23;;;;;;;8.45;1.95;;;3.90;99.90;;;;;;5116502;27;20042;-92
2022/12/27 00:45:49;;;;;;;7.80;1.77;;;3.90;99.90;;;;;;5098458;27;20043;-92
2022/12/27 00:48:15;;;;;;;8.20;1.90;;;3.90;99.90;;;;;;5116513;27;20121;-91
2022/12/27 00:50:42;;;;;;;6.72;2.60;;;3.90;99.90;;;;;;5115657;27;20114;-91
2022/12/27 00:53:09;;;;;;;6.47;1.90;;;3.90;99.90;;;;;;5115538;27;20074;-92
2022/12/27 00:55:35;;;;;;;6.82;1.92;;;3.90;99.90;;;;;;5134628;27;20035;-91
2022/12/27 00:58:01;;;;;;;5.88;1.67;;;3.90;99.90;;;;;;5124892;27;20040;-91
2022/12/27 01:00:26;;;;;;;5.43;2.50;;;3.90;99.90;;;;;;5116015;27;20043;-91
2022/12/27 01:02:52;;;;;;;5.32;1.58;;;3.90;99.90;;;;;;5134239;27;20118;-92
2022/12/27 01:05:17;;;;;;;7.93;1.95;;;3.90;99.90;;;;;;5110717;27;20555;-92
2022/12/27 01:07:43;;;;;;;7.05;1.65;;;3.80;99.90;;;;;;5116035;27;20043;-92
2022/12/27 01:10:09;;;;;;;4.72;1.98;;;3.80;99.90;;;;;;5114655;27;20163;-91
2022/12/27 01:12:35;;;;;;;5.55;1.52;;;3.80;99.90;;;;;;5115699;27;20385;-91
2022/12/27 01:15:01;;;;;;;7.78;1.75;;;3.80;99.90;;;;;;5133302;27;20110;-92
2022/12/27 01:17:28;;;;;;;6.90;1.25;;;3.80;99.90;;;;;;5115746;27;20051;-92
2022/12/27 01:19:54;;;;;;;5.32;1.60;;;3.80;99.90;;;;;;5114912;27;20043;-92
2022/12/27 01:22:19;;;;;;;11.75;2.60;;;3.80;99.90;;;;;;5118281;27;20034;-92
2022/12/27 01:24:45;;;;;;;10.05;2.05;;;3.80;99.90;;;;;;5113508;28;20035;-92
2022/12/27 01:27:10;;;;;;;6.32;1.90;;;3.80;99.90;;;;;;5113829;27;20547;-92
2022/12/27 01:29:36;;;;;;;7.55;1.80;;;3.70;99.90;;;;;;5115832;27;20043;-92
2022/12/27 01:32:02;;;;;;;6.60;2.08;;;3.70;99.90;;;;;;5119515;27;20505;-91
2022/12/27 01:34:27;;;;;;;9.40;2.08;;;3.70;99.90;;;;;;5094907;28;20157;-91
2022/12/27 01:36:53;;;;;;;9.80;2.13;;;3.70;99.90;;;;;;5094338;28;20050;-92
2022/12/27 01:39:19;;;;;;;10.00;2.13;;;3.70;99.90;;;;;;5108575;27;20119;-91
2022/12/27 01:44:39;;;;;;;7.53;2.22;;;3.70;99.90;;;;;;5114284;27;20039;-92
2022/12/27 01:47:31;;;;;;;9.05;1.95;;;3.70;99.90;;;;;;5115525;27;20552;-91
2022/12/27 01:50:05;;;;;;;9.65;1.95;;;3.70;99.90;;;;;;5127855;27;20034;-91
2022/12/27 01:52:41;;;;;;;7.88;2.60;;;3.70;99.90;;;;;;5094476;28;20047;-91
2022/12/27 01:55:19;;;;;;;7.57;2.63;;;3.70;99.90;;;;;;5096855;27;20038;-92
2022/12/27 01:57:46;;;;;;;11.00;2.35;;;3.70;99.90;;;;;;5133279;27;20047;-91
2022/12/27 02:00:12;;;;;;;7.85;2.20;;;3.70;99.90;;;;;;5114942;27;20039;-91
2022/12/27 02:02:38;;;;;;;9.55;2.20;;;3.60;99.90;;;;;;5112221;27;20035;-92
2022/12/27 02:05:05;;;;;;;8.23;2.10;;;3.60;99.90;;;;;;5114758;27;20035;-91
2022/12/27 02:07:57;;;;;;;6.18;1.55;;;3.60;99.90;;;;;;5114772;27;20122;-91
2022/12/27 02:10:24;;;;;;;6.72;2.45;;;3.60;99.90;;;;;;5108002;28;20047;-91
2022/12/27 02:12:51;;;;;;;4.22;1.65;;;3.60;99.90;;;;;;5112363;28;20051;-92
2022/12/27 02:15:16;;;;;;;9.25;2.70;;;3.60;99.90;;;;;;5119556;27;20112;-92
2022/12/27 02:17:42;;;;;;;9.93;2.95;;;3.60;99.90;;;;;;5112511;28;20501;-91
2022/12/27 02:20:11;;;;;;;4.60;1.52;;;3.60;99.90;;;;;;5096152;27;20398;-90
2022/12/27 02:26:18;;;;;;;9.80;2.53;;;3.60;99.90;;;;;;5127549;27;20043;-91
2022/12/27 02:29:20;;;;;;;6.43;2.75;;;3.60;99.90;;;;;;5094371;28;20043;-91
2022/12/27 02:31:54;;;;;;;9.52;2.58;;;3.60;99.90;;;;;;5095337;27;20086;-91
2022/12/27 02:34:28;;;;;;;7.80;2.10;;;3.60;99.90;;;;;;5108230;27;20045;-91
2022/12/27 02:37:01;;;;;;;14.60;3.80;;;3.70;99.90;;;;;;5114196;27;20126;-91
2022/12/27 02:39:29;;;;;;;8.73;2.95;;;3.70;99.90;;;;;;5113222;27;20043;-91
2022/12/27 02:53:02;;;;;;;6.35;2.88;;;3.80;99.90;;;;;;5112713;27;20158;-91
2022/12/27 02:53:51;;;;;;;6.57;2.45;;;3.80;99.90;;;;;;5113633;27;20050;-91
2022/12/27 03:03:19;;;;;;;10.07;2.92;;;3.90;99.90;;;;;;5093219;28;20079;-92
2022/12/27 03:03:22;;;;;;;27.20;3.35;;;3.80;99.90;;;;;;5111135;28;20461;-91
2022/12/27 03:09:05;;;;;;;6.97;2.00;;;3.80;99.90;;;;;;5114122;28;20441;-90
2022/12/27 03:17:39;;;;;;;8.23;1.92;;;3.80;99.90;;;;;;5130244;28;20085;-91
2022/12/27 03:25:48;;;;;;;7.00;2.00;;;3.80;99.90;;;;;;5113774;28;20051;-91
2022/12/27 03:39:48;;;;;;;8.75;2.17;;;3.90;99.90;;;;;;5113584;28;20043;-91
2022/12/27 03:45:07;;;;;;;10.10;2.33;;;3.90;99.90;;;;;;5113609;28;20047;-91
2022/12/27 03:47:55;;;;;;;10.98;2.33;;;3.90;99.90;;;;;;5112626;28;20043;-91
2022/12/27 03:50:33;;;;;;;11.90;3.47;;;3.90;99.90;;;;;;5113700;28;20047;-92
2022/12/27 03:53:10;;;;;;;13.35;2.58;;;3.90;99.90;;;;;;5112365;28;20754;-91
2022/12/27 03:55:37;;;;;;;7.15;1.92;;;4.00;99.90;;;;;;5093296;28;20082;-91
2022/12/27 03:58:03;;;;;;;7.18;1.75;;;4.00;99.90;;;;;;5120616;27;20401;-91
2022/12/27 04:00:29;;;;;;;11.77;2.38;;;4.00;99.90;;;;;;5117006;27;20050;-91
2022/12/27 04:02:55;;;;;;;5.82;1.45;;;4.00;99.90;;;;;;5116285;27;20047;-91
2022/12/27 04:05:21;;;;;;;13.13;2.05;;;4.10;99.90;;;;;;5134783;27;20031;-91
2022/12/27 04:35:07;;;;;;;7.75;1.65;;;4.60;99.90;;;;;;5111353;28;20040;-91
2022/12/27 04:37:33;;;;;;;6.63;1.45;;;4.60;99.90;;;;;;5096074;28;20440;-91
2022/12/27 04:56:25;;;;;;;7.07;3.05;;;4.50;99.90;;;;;;5134381;27;20039;-91
2022/12/27 05:04:20;;;;;;;9.88;2.72;;;4.40;99.90;;;;;;5113840;28;20408;-90
2022/12/27 05:06:46;;;;;;;6.47;2.22;;;4.40;99.90;;;;;;5103799;28;20048;-91
2022/12/27 05:14:44;;;;;;;9.43;2.63;;;4.20;99.90;;;;;;5066968;28;20043;-91
2022/12/27 05:17:10;;;;;;;8.88;2.67;;;4.20;99.90;;;;;;5098194;27;20396;-91
2022/12/27 05:19:36;;;;;;;7.40;2.13;;;4.20;99.90;;;;;;5115172;27;20047;-90
2022/12/27 05:27:30;;;;;;;9.70;2.35;;;4.10;99.90;;;;;;5134059;27;20446;-91
2022/12/27 05:29:55;;;;;;;7.13;2.40;;;4.20;99.90;;;;;;5114667;27;20083;-90
2022/12/27 05:32:21;;;;;;;8.18;2.05;;;4.20;99.90;;;;;;5115113;27;20122;-91
2022/12/27 05:34:46;;;;;;;8.00;1.98;;;4.20;99.90;;;;;;5111730;28;20131;-90
2022/12/27 05:37:12;;;;;;;6.70;1.85;;;4.20;99.90;;;;;;5107948;28;20040;-90
2022/12/27 05:39:38;;;;;;;5.82;1.88;;;4.10;99.90;;;;;;5094958;28;20046;-91
2022/12/27 05:42:03;;;;;;;10.35;2.22;;;4.20;99.90;;;;;;5102230;27;20373;-90
2022/12/27 05:44:29;;;;;;;9.60;2.13;;;4.20;99.90;;;;;;5115001;27;20138;-90
2022/12/27 05:46:55;;;;;;;9.27;1.55;;;4.20;99.90;;;;;;5115235;27;20046;-91
2022/12/27 05:49:20;;;;;;;5.30;1.65;;;4.20;99.90;;;;;;5114214;27;20412;-90
2022/12/27 05:51:46;;;;;;;7.85;1.98;;;4.20;99.90;;;;;;5115215;27;20081;-91
2022/12/27 05:54:12;;;;;;;13.98;2.40;;;4.20;99.90;;;;;;5114319;27;20475;-90
2022/12/27 05:56:37;;;;;;;7.55;2.20;;;4.30;99.90;;;;;;5099551;28;20040;-91
2022/12/27 05:59:04;;;;;;;6.45;2.15;;;4.30;99.90;;;;;;5094638;28;20040;-91
2022/12/27 06:01:30;;;;;;;8.00;2.78;;;4.20;99.90;;;;;;5117331;27;20078;-90
2022/12/27 06:03:55;;;;;;;9.52;2.55;;;4.30;99.90;;;;;;5114531;27;20067;-90
2022/12/27 06:06:21;;;;;;;4.50;1.85;;;4.30;99.90;;;;;;5133158;27;20050;-90
2022/12/27 06:08:46;;;;;;;9.13;1.90;;;4.40;99.90;;;;;;5110431;28;20122;-91
2022/12/27 06:11:17;;;;;;;5.60;1.63;;;4.50;99.90;;;;;;5094464;28;20045;-91
2022/12/27 06:13:49;;;;;;;4.43;1.23;;;4.50;99.90;;;;;;5093704;28;20047;-90
2022/12/27 06:16:15;;;;;;;5.10;1.55;;;4.60;99.90;;;;;;5098364;28;20048;-91
2022/12/27 06:18:41;;;;;;;8.15;2.30;;;4.70;99.90;;;;;;5112396;28;20153;-91
2022/12/27 06:21:10;;;;;;;8.57;2.65;;;4.70;99.90;;;;;;5094304;27;20439;-91
2022/12/27 06:23:38;;;;;;;13.38;3.05;;;4.70;99.90;;;;;;5113905;27;20042;-91
2022/12/27 06:26:11;;;;;;;13.95;2.90;;;4.70;99.90;;;;;;5117349;27;20046;-91
2022/12/27 06:28:37;;;;;;;9.45;2.25;;;4.70;99.90;;;;;;5113926;27;20050;-91
2022/12/27 06:31:02;;;;;;;6.15;2.20;;;4.70;99.90;;;;;;5114322;27;20043;-90
2022/12/27 06:33:29;;;;;;;11.27;2.05;;;4.70;99.90;;;;;;5106156;27;20031;-91
2022/12/27 06:35:54;;;;;;;11.07;2.08;;;4.70;99.90;;;;;;5114514;27;20118;-92
2022/12/27 06:38:20;;;;;;;9.27;2.90;;;4.70;99.90;;;;;;5111875;28;20629;-91
2022/12/27 06:40:46;;;;;;;5.55;1.80;;;4.70;99.90;;;;;;5126046;27;20035;-90
2022/12/27 06:43:12;;;;;;;10.57;2.55;;;4.70;99.90;;;;;;5113939;27;20126;-91
2022/12/27 06:45:37;;;;;;;11.73;2.75;;;4.70;99.90;;;;;;5104895;27;20041;-91
2022/12/27 06:48:03;;;;;;;10.90;2.75;;;4.60;99.90;;;;;;5132639;27;20043;-90
2022/12/27 06:50:29;;;;;;;11.15;3.08;;;4.60;99.90;;;;;;5113799;27;20078;-90
2022/12/27 06:52:54;;;;;;;12.20;3.03;;;4.60;99.90;;;;;;5109758;28;20502;-90
2022/12/27 06:55:20;;;;;;;8.55;2.70;;;4.50;99.90;;;;;;5110638;28;20476;-91
2022/12/27 06:57:46;;;;;;;7.72;2.42;;;4.50;99.90;;;;;;5119939;27;20079;-91
2022/12/27 07:00:12;;;;;;;14.23;3.05;;;4.50;99.90;;;;;;5093010;27;20062;-90
2022/12/27 07:02:38;;;;;;;6.25;2.25;;;4.50;99.90;;;;;;5130986;27;20046;-91
2022/12/27 07:05:04;;;;;;;5.40;1.60;;;4.60;99.90;;;;;;5113400;28;20088;-91
2022/12/27 07:07:30;;;;;;;7.88;2.28;;;4.60;99.90;;;;;;5113878;27;20085;-90
2022/12/27 07:09:57;;;;;;;11.80;3.22;;;4.60;99.90;;;;;;5101449;28;20075;-90
2022/12/27 07:12:22;;;;;;;6.55;2.25;;;4.60;99.90;;;;;;5093106;28;20040;-91
2022/12/27 07:14:48;;;;;;;8.80;2.83;;;4.50;99.90;;;;;;5098470;28;20046;-90
2022/12/27 07:17:14;;;;;;;12.32;2.85;;;4.50;99.90;;;;;;5113724;28;20500;-90
2022/12/27 07:19:39;;;;;;;8.13;2.78;;;4.40;99.90;;;;;;5113730;28;20043;-91
2022/12/27 07:22:05;;;;;;;10.95;3.13;;;4.40;99.90;;;;;;5108799;28;20126;-91
2022/12/27 07:24:32;;;;;;;11.60;3.08;;;4.40;99.90;;;;;;5093611;28;20050;-91
2022/12/27 07:26:58;;;;;;;14.30;3.53;;;4.40;99.90;;;;;;5105976;28;20050;-91
2022/12/27 07:29:24;;;;;;;8.88;2.53;;;4.30;99.90;;;;;;5116839;28;20043;-91
2022/12/27 07:31:49;;;;;;;9.48;2.83;;;4.30;99.90;;;;;;5095742;28;20044;-91
2022/12/27 07:34:15;;;;;;;11.43;2.92;;;4.30;99.90;;;;;;5102083;27;20035;-91
2022/12/27 07:36:41;;;;;;;9.50;1.85;;;4.30;99.90;;;;;;5117778;27;20039;-91
2022/12/27 07:39:07;;;;;;;10.85;2.72;;;4.30;99.90;;;;;;5117761;27;20039;-92
2022/12/27 07:41:33;;;;;;;12.05;1.85;;;4.30;99.90;;;;;;5110766;27;20504;-92
2022/12/27 07:43:59;;;;;;;7.47;1.63;;;4.30;99.90;;;;;;5117225;27;20043;-91
2022/12/27 07:46:25;;;;;;;10.40;2.42;;;4.40;99.90;;;;;;5117649;27;20103;-91
2022/12/27 07:48:56;;;;;;;6.95;1.73;;;4.40;99.90;;;;;;5116343;27;20054;-91
2022/12/27 07:51:23;;;;;;;11.75;2.95;;;4.40;99.90;;;;;;5117561;27;20515;-91
2022/12/27 07:53:50;;;;;;;6.13;1.90;;;4.40;99.90;;;;;;5116878;27;20496;-91
2022/12/27 07:56:24;;;;;;;9.07;2.15;;;4.40;99.90;;;;;;5116621;27;20508;-91
2022/12/27 07:58:50;;;;;;;8.70;2.22;;;4.40;99.90;;;;;;5117364;27;20043;-91
2022/12/27 08:01:18;;;;;;;9.68;1.90;;;4.30;99.90;;;;;;5116960;27;20084;-90
2022/12/27 08:03:44;;;;;;;12.75;2.10;;;4.30;99.90;;;;;;5111817;28;20075;-91
2022/12/27 08:06:28;;;;;;;10.68;2.60;;;4.30;99.90;;;;;;5096976;28;20058;-91
2022/12/27 08:08:56;;;;;;;4.00;1.63;;;4.30;99.90;;;;;;5113127;27;20045;-91
2022/12/27 08:11:22;;;;;;;8.77;2.03;;;4.30;99.90;;;;;;5096261;27;20427;-90
2022/12/27 08:13:47;;;;;;;9.73;2.80;;;4.30;99.90;;;;;;5114184;27;20051;-91
2022/12/27 08:16:22;;;;;;;9.93;2.92;;;4.40;99.90;;;;;;5097682;28;20071;-91
2022/12/27 08:18:48;;;;;;;9.27;3.17;;;4.40;99.90;;;;;;5095844;28;20047;-92
2022/12/27 08:21:15;;;;;;;6.18;2.17;;;4.40;99.90;;;;;;5114825;27;20042;-91
2022/12/27 08:23:40;;;;;;;10.30;2.10;;;4.30;99.90;;;;;;5115897;27;20047;-92
2022/12/27 08:26:07;;;;;;;8.38;2.53;;;4.30;99.90;;;;;;5113888;27;20450;-91
2022/12/27 08:28:32;;;;;;;12.02;3.08;;;4.30;99.90;;;;;;5095929;28;20508;-92
2022/12/27 08:30:59;;;;;;;9.82;2.65;;;4.30;99.90;;;;;;5096310;28;20082;-91
2022/12/27 08:33:25;;;;;;;10.63;2.60;;;4.30;99.90;;;;;;5109821;27;20035;-91
2022/12/27 08:35:50;;;;;;;11.13;2.97;;;4.30;99.90;;;;;;5134530;27;20031;-91
2022/12/27 08:38:17;;;;;;;8.27;2.28;;;4.40;99.90;;;;;;5122412;27;20089;-91
2022/12/27 08:40:44;;;;;;;14.73;3.30;;;4.40;99.90;;;;;;5095807;28;20042;-91
2022/12/27 08:43:11;;;;;;;9.68;2.85;;;4.40;99.90;;;;;;5096177;27;20046;-91
2022/12/27 08:45:38;;;;;;;10.40;2.45;;;4.40;99.90;;;;;;5115498;27;20408;-91
2022/12/27 08:48:05;;;;;;;8.55;2.60;;;4.40;99.90;;;;;;5116481;27;20054;-91
2022/12/27 08:50:31;;;;;;;13.07;2.67;;;4.40;99.90;;;;;;5133237;27;20426;-91
2022/12/27 08:52:59;;;;;;;11.73;3.10;;;4.40;99.90;;;;;;5115722;27;20122;-91
2022/12/27 08:55:26;;;;;;;13.25;3.92;;;4.50;99.90;;;;;;5115038;27;20421;-91
2022/12/27 08:58:00;;;;;;;10.00;2.90;;;4.50;99.90;;;;;;5114483;27;20051;-92
2022/12/27 09:00:27;;;;;;;9.52;3.28;;;4.40;99.90;;;;;;5100551;27;20507;-91
2022/12/27 09:02:53;;;;;;;17.52;3.65;;;4.50;99.90;;;;;;5134248;27;20031;-91
2022/12/27 09:05:20;;;;;;;6.78;2.25;;;4.50;99.90;;;;;;5115822;27;20039;-91
2022/12/27 09:07:46;;;;;;;10.57;3.28;;;4.50;99.90;;;;;;5111549;27;20042;-91
2022/12/27 09:10:12;;;;;;;9.48;2.80;;;4.60;99.90;;;;;;5113418;28;20101;-92
2022/12/27 09:12:37;;;;;;;15.82;2.95;;;4.60;99.90;;;;;;5094923;28;20075;-91
2022/12/27 09:15:03;;;;;;;12.40;3.55;;;4.60;99.90;;;;;;5105015;27;20039;-91
2022/12/27 09:17:29;;;;;;;11.27;3.08;;;4.60;99.90;;;;;;5133623;27;20056;-91
2022/12/27 09:19:54;;;;;;;12.88;3.00;;;4.60;99.90;;;;;;5114204;27;20033;-91
2022/12/27 09:22:20;;;;;;;10.00;2.83;;;4.60;99.90;;;;;;5115015;27;20043;-92
2022/12/27 09:24:45;;;;;;;10.00;3.08;;;4.60;99.90;;;;;;5115157;27;20123;-91
2022/12/27 09:27:11;;;;;;;12.73;3.38;;;4.60;99.90;;;;;;5105342;28;20035;-92
2022/12/27 09:29:37;;;;;;;16.95;3.80;;;4.70;99.90;;;;;;5111779;28;20497;-90
2022/12/27 09:32:02;;;;;;;11.80;3.15;;;4.70;99.90;;;;;;5111943;28;20127;-91
2022/12/27 09:34:28;;;;;;;15.95;4.03;;;4.80;99.90;;;;;;5114182;27;20087;-91
2022/12/27 09:36:53;;;;;;;14.38;3.03;;;4.80;99.90;;;;;;5114936;27;20048;-91
2022/12/27 09:39:19;;;;;;;10.43;3.90;;;4.80;99.90;;;;;;5099488;28;20513;-90
2022/12/27 09:41:54;;;;;;;10.07;3.03;;;4.90;99.90;;;;;;5094514;28;20046;-91
2022/12/27 09:44:22;;;;;;;13.18;3.47;;;4.90;99.90;;;;;;5102059;28;20222;-90
2022/12/27 09:47:13;;;;;;;16.42;4.05;;;4.90;99.90;;;;;;5094386;28;20051;-91
2022/12/27 09:49:43;;;;;;;12.10;3.25;;;4.90;99.90;;;;;;5093927;28;20091;-91
2022/12/27 09:52:27;;;;;;;10.40;3.30;;;5.00;99.90;;;;;;5098690;28;20039;-90
2022/12/27 09:55:00;;;;;;;17.77;3.58;;;5.00;99.90;;;;;;5093588;28;20091;-91
2022/12/27 09:57:29;;;;;;;;;;;5.10;99.90;;;;;;5094277;28;20493;-90
2022/12/27 09:59:59;;;;;;;9.43;2.53;;;5.10;99.90;;;;;;5112384;28;19930;-90
2022/12/27 10:02:27;;;;;;;10.02;2.85;;;5.20;99.90;;;;;;5099749;27;20508;-90
2022/12/27 10:04:55;;;;;;;14.35;3.97;;;5.20;99.90;;;;;;5114266;27;20035;-91
2022/12/27 10:08:02;;;;;;;14.88;3.17;;;5.10;99.90;;;;;;5111726;28;20094;-91
2022/12/27 10:10:54;;;;;;;10.77;3.45;;;5.10;99.90;;;;;;5093612;28;20044;-91
2022/12/27 10:13:28;;;;;;;11.82;3.13;;;5.10;99.90;;;;;;5110353;27;20052;-91
2022/12/27 10:16:18;;;;;;;13.05;3.22;;;5.20;99.90;;;;;;5110794;28;20071;-91
2022/12/27 10:19:02;;;;;;;15.68;3.22;;;5.30;99.90;;;;;;5102968;27;20195;-90
2022/12/27 10:21:29;;;;;;;12.15;2.97;;;5.40;99.90;;;;;;5114735;27;20176;-91
2022/12/27 10:24:04;;;;;;;14.95;2.97;;;5.50;99.90;;;;;;5114106;27;20047;-91
2022/12/27 10:26:29;;;;;;;13.50;3.42;;;5.60;99.90;;;;;;5098072;28;20405;-92
2022/12/27 10:29:00;;;;;;;12.57;3.38;;;5.80;99.90;;;;;;5093703;28;20044;-91
2022/12/27 10:31:27;;;;;;;9.95;3.35;;;5.90;99.90;;;;;;5107684;27;20034;-92
2022/12/27 10:33:53;;;;;;;8.45;2.80;;;6.00;99.90;;;;;;5133821;27;20027;-91
2022/12/27 10:36:23;;;;;;;8.20;2.45;;;6.10;99.90;;;;;;5113780;27;20404;-91
2022/12/27 10:38:49;;;;;;;9.20;2.85;;;6.20;99.90;;;;;;5124559;27;20049;-92
2022/12/27 10:41:20;;;;;;;9.68;2.95;;;6.20;99.90;;;;;;5097031;27;20031;-91
2022/12/27 10:43:50;;;;;;;8.90;2.55;;;6.30;99.90;;;;;;5103697;28;20106;-92
2022/12/27 10:46:19;;;;;;;11.40;2.72;;;6.40;99.90;;;;;;5112095;28;20040;-91
2022/12/27 10:48:58;;;;;;;10.50;2.70;;;6.50;99.90;;;;;;5092071;28;20043;-93
2022/12/27 10:51:27;;;;;;;12.68;2.90;;;6.60;99.90;;;;;;5092195;28;20070;-92
2022/12/27 10:54:02;;;;;;;10.60;2.63;;;6.70;99.90;;;;;;5093152;28;20042;-92
2022/12/27 10:56:30;;;;;;;10.30;2.40;;;6.80;99.90;;;;;;5094546;27;20044;-92
2022/12/27 10:59:14;;;;;;;10.35;2.40;;;6.90;99.90;;;;;;5096285;28;20044;-92
2022/12/27 11:01:40;;;;;;;10.55;2.55;;;6.90;99.90;;;;;;5147405;27;20038;-91
2022/12/27 11:04:20;;;;;;;9.73;2.17;;;6.90;99.90;;;;;;5104519;27;20480;-91
2022/12/27 11:07:10;;;;;;;12.75;2.95;;;6.90;99.90;;;;;;5119277;27;20133;-91
2022/12/27 11:09:37;;;;;;;11.20;2.58;;;6.80;99.90;;;;;;5135633;27;20035;-89
2022/12/27 11:12:18;;;;;;;14.63;2.38;;;6.70;99.90;;;;;;5119670;27;20508;-90
2022/12/27 11:15:17;;;;;;;9.20;2.53;;;6.70;99.90;;;;;;5100217;27;20042;-90
2022/12/27 11:17:46;;;;;;;8.00;2.35;;;6.70;99.90;;;;;;5122992;27;20043;-90
2022/12/27 11:20:20;;;;;;;9.35;2.15;;;6.80;99.90;;;;;;5129227;27;20039;-90
2022/12/27 11:22:52;;;;;;;9.05;2.33;;;6.90;99.90;;;;;;5130745;28;20049;-92
2022/12/27 11:25:19;;;;;;;9.85;2.17;;;7.00;99.90;;;;;;5113177;28;20051;-90
2022/12/27 11:27:47;;;;;;;12.82;2.72;;;7.20;99.90;;;;;;5100000;28;20059;-91
2022/12/27 11:30:38;;;;;;;9.65;2.20;;;7.40;99.90;;;;;;5093142;28;20055;-91
2022/12/27 11:33:21;;;;;;;10.57;2.67;;;7.50;99.90;;;;;;5125309;28;20125;-90
2022/12/27 11:35:50;;;;;;;10.60;2.10;;;7.60;99.90;;;;;;5113601;28;20445;-92
2022/12/27 11:38:37;;;;;;;9.63;2.33;;;7.60;99.90;;;;;;5109378;28;20493;-91
2022/12/27 11:41:30;;;;;;;11.30;2.40;;;7.50;99.90;;;;;;5095156;28;20074;-92
2022/12/27 11:44:25;;;;;;;6.00;1.85;;;7.50;99.90;;;;;;5092513;28;20046;-91
2022/12/27 11:47:05;;;;;;;8.75;1.80;;;7.50;99.90;;;;;;5116323;27;20452;-91
2022/12/27 11:49:39;;;;;;;7.00;2.22;;;7.50;99.90;;;;;;5122514;27;20121;-91
2022/12/27 11:52:39;;;;;;;8.73;2.05;;;7.50;99.90;;;;;;5115285;27;20042;-91
2022/12/27 11:55:39;;;;;;;8.27;1.90;;;7.50;99.90;;;;;;5121782;27;20081;-91
2022/12/27 11:58:19;;;;;;;10.52;2.38;;;7.50;99.90;;;;;;5116892;27;20053;-91
2022/12/27 12:01:20;;;;;;;11.50;2.13;;;7.40;99.90;;;;;;5123049;27;20041;-92
2022/12/27 12:04:04;;;;;;;11.40;2.78;;;7.40;99.90;;;;;;5123390;27;20118;-91
2022/12/27 12:06:48;;;;;;;8.88;2.88;;;7.50;99.90;;;;;;5136295;27;20038;-92
2022/12/27 12:09:29;;;;;;;13.50;3.20;;;7.50;99.90;;;;;;5118668;27;20043;-91
2022/12/27 12:12:19;;;;;;;10.13;3.25;;;7.60;99.90;;;;;;5122820;27;20039;-91
2022/12/27 12:15:26;;;;;;;8.52;2.53;;;7.50;99.90;;;;;;5120722;27;20492;-93
2022/12/27 12:18:26;;;;;;;10.25;3.05;;;7.40;99.90;;;;;;5122466;27;20043;-92
2022/12/27 12:21:18;;;;;;;12.27;2.97;;;7.30;99.90;;;;;;5093533;27;20554;-91
2022/12/27 12:24:01;;;;;;;10.77;3.05;;;7.30;99.90;;;;;;5120020;27;20035;-91
2022/12/27 12:26:49;;;;;;;13.18;3.67;;;7.30;99.90;;;;;;5124253;27;20064;-91
2022/12/27 12:29:46;;;;;;;13.30;3.20;;;7.30;99.90;;;;;;5139134;27;20035;-92
2022/12/27 12:32:34;;;;;;;10.95;3.58;;;7.30;99.90;;;;;;5124935;27;20039;-91
2022/12/27 12:35:18;;;;;;;11.68;3.28;;;7.30;99.90;;;;;;5122009;27;20092;-93
2022/12/27 12:37:55;;;;;;;11.75;3.20;;;7.30;99.90;;;;;;5116212;27;20055;-91
2022/12/27 12:40:47;;;;;;;12.85;4.65;;;7.30;99.90;;;;;;5097721;27;20039;-91
2022/12/27 12:43:39;;;;;;;16.58;3.70;;;7.30;99.90;;;;;;5098614;27;20467;-91
2022/12/27 12:46:42;;;;;;;14.48;3.47;;;7.30;99.90;;;;;;5133496;27;20544;-91
2022/12/27 12:49:29;;;;;;;9.60;5.57;;;7.20;99.90;;;;;;5116547;27;20078;-91
2022/12/27 12:52:15;;;;;;;10.88;3.40;;;7.10;99.90;;;;;;5109070;28;20054;-91
2022/12/27 12:55:20;;;;;;;11.20;4.15;;;7.00;99.90;;;;;;5113663;28;20123;-91
2022/12/27 12:57:48;;;;;;;12.40;4.07;;;7.20;99.90;;;;;;5081494;27;20103;-91
2022/12/27 13:00:43;;;;;;;16.33;4.70;;;7.40;99.90;;;;;;5099927;28;20089;-91
2022/12/27 13:03:23;;;;;;;14.15;4.38;;;7.90;99.90;;;;;;5103718;28;20075;-91
2022/12/27 13:06:14;;;;;;;16.50;4.93;;;8.60;99.90;;;;;;5113315;27;20088;-91
2022/12/27 13:08:46;;;;;;;14.60;4.70;;;9.00;99.90;;;;;;5114777;28;20046;-91
2022/12/27 13:11:11;;;;;;;12.88;5.22;;;9.10;99.90;;;;;;5099661;28;20039;-92
2022/12/27 13:13:47;;;;;;;16.25;5.13;;;8.90;99.90;;;;;;5113227;28;20039;-91
2022/12/27 13:16:22;;;;;;;15.15;5.55;;;8.60;99.90;;;;;;5129555;27;20035;-91
2022/12/27 13:19:05;;;;;;;12.65;5.63;;;8.40;99.90;;;;;;5101507;27;20458;-91
2022/12/27 13:22:24;;;;;;;11.10;4.93;;;8.20;99.90;;;;;;5117662;27;20043;-91
2022/12/27 13:25:16;;;;;;;15.23;6.03;;;8.10;99.90;;;;;;5024387;27;20045;-91
2022/12/27 13:27:45;;;;;;;11.98;5.70;;;8.20;99.90;;;;;;5091437;27;20522;-91
2022/12/27 13:30:23;;;;;;;15.45;6.10;;;8.10;99.90;;;;;;5102876;27;20170;-90
2022/12/27 13:33:27;;;;;;;13.48;6.85;;;8.10;99.90;;;;;;5102965;27;20040;-91
2022/12/27 13:36:07;;;;;;;12.63;5.95;;;8.00;99.90;;;;;;5101966;27;20430;-91
2022/12/27 13:38:48;;;;;;;13.35;5.78;;;7.90;99.90;;;;;;5104688;27;20051;-90
2022/12/27 13:41:33;;;;;;;14.63;6.43;;;7.80;99.90;;;;;;5113030;27;20162;-89
2022/12/27 13:44:18;;;;;;;12.65;5.95;;;7.70;99.90;;;;;;5114208;27;20050;-92
2022/12/27 13:47:11;;;;;;;16.02;6.18;;;7.70;99.90;;;;;;5094239;28;20054;-91
2022/12/27 13:49:36;;;;;;;;;;;7.70;99.90;;;;;;5095266;27;20083;-91
2022/12/27 13:52:14;;;;;;;14.93;6.65;;;7.90;99.90;;;;;;5102439;28;19957;-90
2022/12/27 13:55:14;;;;;;;14.07;6.85;;;8.30;99.90;;;;;;5093913;28;20055;-91
2022/12/27 13:58:16;;;;;;;21.27;6.45;;;8.60;99.90;;;;;;5113528;27;20043;-91
2022/12/27 14:01:03;;;;;;;15.33;6.17;;;8.60;99.90;;;;;;5093754;28;20508;-91
2022/12/27 14:03:41;;;;;;;15.50;7.05;;;8.40;99.90;;;;;;5101111;28;20051;-90
2022/12/27 14:06:40;;;;;;;15.70;7.97;;;8.20;99.90;;;;;;5093952;28;20047;-91
2022/12/27 14:09:20;;;;;;;15.57;7.07;;;7.90;99.90;;;;;;5108865;27;20043;-90
2022/12/27 14:12:29;;;;;;;14.30;7.10;;;7.70;99.90;;;;;;5114246;27;20043;-90
2022/12/27 14:14:58;;;;;;;16.95;6.65;;;7.60;99.90;;;;;;5136963;27;20395;-90
2022/12/27 14:18:02;;;;;;;15.50;6.88;;;7.50;99.90;;;;;;5116450;27;20043;-91
2022/12/27 14:20:49;;;;;;;15.18;7.68;;;7.40;99.90;;;;;;5041075;27;20045;-91
2022/12/27 14:23:47;;;;;;;14.13;7.72;;;7.30;99.90;;;;;;5105106;27;20046;-90
2022/12/27 14:26:44;;;;;;;14.45;7.20;;;7.20;99.90;;;;;;5059146;27;20047;-91
2022/12/27 14:29:19;;;;;;;13.00;6.50;;;7.20;99.90;;;;;;5110242;28;20100;-90
2022/12/27 14:31:53;;;;;;;15.77;8.20;;;7.10;99.90;;;;;;5107835;28;20111;-90
2022/12/27 14:34:25;;;;;;;13.02;7.25;;;7.10;99.90;;;;;;5112352;27;20054;-91
2022/12/27 14:37:27;;;;;;;16.33;7.45;;;7.10;99.90;;;;;;5131524;27;20042;-90
2022/12/27 14:40:39;;;;;;;13.18;7.45;;;7.00;99.90;;;;;;5113043;27;20043;-90
2022/12/27 14:43:37;;;;;;;13.65;7.78;;;7.00;99.90;;;;;;5111742;27;20035;-91
2022/12/27 14:46:27;;;;;;;14.23;7.07;;;6.90;99.90;;;;;;5114056;27;20404;-91
2022/12/27 14:49:28;;;;;;;17.90;8.02;;;6.80;99.90;;;;;;5099737;28;20035;-91
2022/12/27 14:52:21;;;;;;;15.85;7.88;;;6.80;99.90;;;;;;5109999;28;20088;-91
2022/12/27 14:54:56;;;;;;;;;;;6.80;99.90;;;;;;5112891;27;20488;-90
2022/12/27 14:57:41;;;;;;;13.98;7.38;;;6.70;99.90;;;;;;5113620;28;19994;-91
2022/12/27 15:00:19;;;;;;;17.23;7.75;;;6.60;99.90;;;;;;5122237;27;20038;-90
2022/12/27 15:03:20;;;;;;;15.85;7.95;;;6.60;99.90;;;;;;5113209;28;20035;-90
2022/12/27 15:06:04;;;;;;;16.98;8.65;;;6.60;99.90;;;;;;5113058;28;21482;-90
2022/12/27 15:08:57;;;;;;;13.30;7.40;;;6.60;99.90;;;;;;5112747;28;20496;-91
2022/12/27 15:11:36;;;;;;;17.13;8.10;;;6.50;99.90;;;;;;5113228;28;20039;-90
2022/12/27 15:14:21;;;;;;;14.70;7.97;;;6.50;99.90;;;;;;5111540;28;20047;-91
2022/12/27 15:16:52;;;;;;;15.38;7.68;;;6.50;99.90;;;;;;5131837;28;20122;-90